createdAt,value
2024-04-06T00:00:53.160Z,0.09
2024-04-06T00:01:54.117Z,0.09
2024-04-06T00:02:54.719Z,0.09
2024-04-06T00:03:55.481Z,0.09
2024-04-06T00:04:56.084Z,0.09
2024-04-06T00:05:56.161Z,0.09
2024-04-06T00:06:56.717Z,0.09
2024-04-06T00:08:06.068Z,0.09
2024-04-06T00:08:57.848Z,0.09
2024-04-06T00:09:58.170Z,0.09
2024-04-06T00:10:58.196Z,0.09
2024-04-06T00:11:58.579Z,0.09
2024-04-06T00:12:59.147Z,0.09
2024-04-06T00:14:00.044Z,0.09
2024-04-06T00:15:00.366Z,0.09
2024-04-06T00:16:01.395Z,0.09
2024-04-06T00:16:10.048Z,0.09
2024-04-06T00:17:11.004Z,0.06
2024-04-06T00:18:12.644Z,0.09
2024-04-06T00:19:11.883Z,0.09
2024-04-06T00:20:11.990Z,0.09
2024-04-06T00:21:12.633Z,0.09
2024-04-06T00:22:13.466Z,0.09
2024-04-06T00:23:13.921Z,0.09
2024-04-06T00:24:14.416Z,0.09
2024-04-06T00:25:15.325Z,0.09
2024-04-06T00:26:15.944Z,0.09
2024-04-06T00:27:15.987Z,0.09
2024-04-06T00:28:16.375Z,0.09
2024-04-06T00:29:16.490Z,0.09
2024-04-06T00:30:17.061Z,0.09
2024-04-06T00:31:17.633Z,0.09
2024-04-06T00:32:18.118Z,0.09
2024-04-06T00:33:18.852Z,0.09
2024-04-06T00:34:18.993Z,0.09
2024-04-06T00:35:19.668Z,0.09
2024-04-06T00:36:20.134Z,0.09
2024-04-06T00:37:20.524Z,0.09
2024-04-06T00:38:21.123Z,0.09
2024-04-06T00:39:21.581Z,0.09
2024-04-06T00:40:21.587Z,0.09
2024-04-06T00:41:22.266Z,0.09
2024-04-06T00:42:22.934Z,0.09
2024-04-06T00:43:24.613Z,0.09
2024-04-06T00:43:48.801Z,0.09
2024-04-06T00:44:48.862Z,0.09
2024-04-06T00:45:49.322Z,0.09
2024-04-06T00:46:49.792Z,0.09
2024-04-06T00:47:50.818Z,0.09
2024-04-06T00:48:51.343Z,0.09
2024-04-06T00:49:51.911Z,0.09
2024-04-06T00:50:52.589Z,0.09
2024-04-06T00:51:52.885Z,0.09
2024-04-06T00:52:53.697Z,0.09
2024-04-06T00:53:54.072Z,0.09
2024-04-06T00:54:55.064Z,0.09
2024-04-06T00:55:56.001Z,0.09
2024-04-06T00:56:57.008Z,0.09
2024-04-06T00:57:57.179Z,0.09
2024-04-06T00:58:57.710Z,0.09
2024-04-06T00:59:58.151Z,0.09
2024-04-06T01:00:58.529Z,0.09
2024-04-06T01:02:05.019Z,0.06
2024-04-06T01:03:00.031Z,0.09
2024-04-06T01:04:00.541Z,0.09
2024-04-06T01:05:00.881Z,0.09
2024-04-06T01:06:01.149Z,0.09
2024-04-06T01:07:01.517Z,0.09
2024-04-06T01:08:01.862Z,0.09
2024-04-06T01:09:02.672Z,0.09
2024-04-06T01:10:03.658Z,0.09
2024-04-06T01:11:03.674Z,0.02
2024-04-06T01:11:14.310Z,0.09
2024-04-06T01:12:15.131Z,0.09
2024-04-06T01:13:15.478Z,0.09
2024-04-06T01:14:15.897Z,0.09
2024-04-06T01:15:16.519Z,0.09
2024-04-06T01:16:17.380Z,0.09
2024-04-06T01:17:18.318Z,0.06
2024-04-06T01:18:18.394Z,0.09
2024-04-06T01:19:18.638Z,0.09
2024-04-06T01:20:19.192Z,0.09
2024-04-06T01:21:19.797Z,0.09
2024-04-06T01:22:20.292Z,0.09
2024-04-06T01:23:20.687Z,0.09
2024-04-06T01:24:21.289Z,0.09
2024-04-06T01:25:21.809Z,0.09
2024-04-06T01:26:22.250Z,0.09
2024-04-06T01:27:22.606Z,0.09
2024-04-06T01:28:24.030Z,0.09
2024-04-06T01:29:23.095Z,0.09
2024-04-06T01:30:23.703Z,0.09
2024-04-06T01:31:24.278Z,0.09
2024-04-06T01:32:24.766Z,0.09
2024-04-06T01:33:26.360Z,0.09
2024-04-06T01:34:53.790Z,0.09
2024-04-06T01:35:54.523Z,0.09
2024-04-06T01:36:55.058Z,0.09
2024-04-06T01:37:55.675Z,0.09
2024-04-06T01:38:56.058Z,0.09
2024-04-06T01:39:56.752Z,0.09
2024-04-06T01:40:57.037Z,0.09
2024-04-06T01:41:57.578Z,0.09
2024-04-06T01:42:57.976Z,0.09
2024-04-06T01:43:58.522Z,0.09
2024-04-06T01:44:59.734Z,0.09
2024-04-06T01:45:59.122Z,0.09
2024-04-06T01:46:59.427Z,0.09
2024-04-06T01:47:59.950Z,0.09
2024-04-06T01:49:00.534Z,0.09
2024-04-06T01:50:00.971Z,0.09
2024-04-06T01:51:01.383Z,0.06
2024-04-06T01:52:03.258Z,0.09
2024-04-06T01:53:03.006Z,0.06
2024-04-06T01:54:03.668Z,0.09
2024-04-06T01:55:04.051Z,0.09
2024-04-06T01:56:04.178Z,0.09
2024-04-06T01:57:05.172Z,0.09
2024-04-06T01:58:06.073Z,0.09
2024-04-06T01:58:14.808Z,0.09
2024-04-06T01:59:15.283Z,0.09
2024-04-06T02:00:15.630Z,0.09
2024-04-06T02:01:16.511Z,0.09
2024-04-06T02:02:18.291Z,0.09
2024-04-06T02:03:17.096Z,0.09
2024-04-06T02:04:18.021Z,0.09
2024-04-06T02:05:18.039Z,0.09
2024-04-06T02:06:18.619Z,0.09
2024-04-06T02:07:19.268Z,0.09
2024-04-06T02:08:20.784Z,0.09
2024-04-06T02:09:20.576Z,0.09
2024-04-06T02:10:21.086Z,0.09
2024-04-06T02:11:22.024Z,0.09
2024-04-06T02:12:21.944Z,0.09
2024-04-06T02:13:22.512Z,0.09
2024-04-06T02:14:23.388Z,0.09
2024-04-06T02:15:24.196Z,0.09
2024-04-06T02:16:24.375Z,0.09
2024-04-06T02:17:26.312Z,0.09
2024-04-06T02:18:25.530Z,0.06
2024-04-06T02:19:25.608Z,0.09
2024-04-06T02:19:35.614Z,0.09
2024-04-06T02:20:35.577Z,0.09
2024-04-06T02:21:35.697Z,0.09
2024-04-06T02:22:35.886Z,0.09
2024-04-06T02:23:36.077Z,0.09
2024-04-06T02:24:36.849Z,0.09
2024-04-06T02:25:37.715Z,0.09
2024-04-06T02:26:38.311Z,0.09
2024-04-06T02:27:38.918Z,0.09
2024-04-06T02:28:39.273Z,0.09
2024-04-06T02:29:39.875Z,0.09
2024-04-06T02:30:40.242Z,0.06
2024-04-06T02:31:40.893Z,0.09
2024-04-06T02:32:41.193Z,0.09
2024-04-06T02:33:42.081Z,0.09
2024-04-06T02:34:42.617Z,0.09
2024-04-06T02:35:43.211Z,0.09
2024-04-06T02:36:43.844Z,0.09
2024-04-06T02:37:44.272Z,0.09
2024-04-06T02:38:44.462Z,0.09
2024-04-06T02:39:44.896Z,0.09
2024-04-06T02:40:45.309Z,0.09
2024-04-06T02:41:46.072Z,0.06
2024-04-06T02:42:46.194Z,0.09
2024-04-06T02:43:47.135Z,0.09
2024-04-06T02:44:48.658Z,0.09
2024-04-06T02:45:48.275Z,0.09
2024-04-06T02:46:48.627Z,0.09
2024-04-06T02:47:49.569Z,0.09
2024-04-06T02:47:58.216Z,0.09
2024-04-06T02:48:58.881Z,0.09
2024-04-06T02:49:59.677Z,0.09
2024-04-06T02:51:00.668Z,0.09
2024-04-06T02:52:00.696Z,0.09
2024-04-06T02:53:00.681Z,0.09
2024-04-06T02:54:01.442Z,0.09
2024-04-06T02:55:01.997Z,0.09
2024-04-06T02:56:02.451Z,0.09
2024-04-06T02:57:02.686Z,0.06
2024-04-06T02:58:03.324Z,0.09
2024-04-06T02:59:03.346Z,0.09
2024-04-06T03:00:04.022Z,0.09
2024-04-06T03:01:04.147Z,0.09
2024-04-06T03:02:05.104Z,0.09
2024-04-06T03:03:05.746Z,0.09
2024-04-06T03:04:06.700Z,0.09
2024-04-06T03:05:07.372Z,0.09
2024-04-06T03:06:08.205Z,0.09
2024-04-06T03:07:08.776Z,0.09
2024-04-06T03:08:09.495Z,0.09
2024-04-06T03:09:09.526Z,0.09
2024-04-06T03:10:11.122Z,0.09
2024-04-06T03:11:10.248Z,0.09
2024-04-06T03:12:11.089Z,0.09
2024-04-06T03:13:11.189Z,0.09
2024-04-06T03:14:11.385Z,0.09
2024-04-06T03:15:11.579Z,0.09
2024-04-06T03:16:12.182Z,0.09
2024-04-06T03:16:22.734Z,0.09
2024-04-06T03:17:23.380Z,0.06
2024-04-06T03:18:23.869Z,0.09
2024-04-06T03:19:24.540Z,0.09
2024-04-06T03:20:25.222Z,0.06
2024-04-06T03:21:26.011Z,0.09
2024-04-06T03:22:26.483Z,0.09
2024-04-06T03:23:27.903Z,0.09
2024-04-06T03:24:27.741Z,0.09
2024-04-06T03:25:28.341Z,0.06
2024-04-06T03:26:29.019Z,0.06
2024-04-06T03:27:29.607Z,0.09
2024-04-06T03:28:29.657Z,0.09
2024-04-06T03:29:30.289Z,0.09
2024-04-06T03:30:30.792Z,0.09
2024-04-06T03:31:31.312Z,0.09
2024-04-06T03:32:32.025Z,0.09
2024-04-06T03:33:32.188Z,0.09
2024-04-06T03:34:32.770Z,0.09
2024-04-06T03:35:33.040Z,0.09
2024-04-06T03:36:33.776Z,0.09
2024-04-06T03:37:34.443Z,0.09
2024-04-06T03:38:35.012Z,0.09
2024-04-06T03:39:35.597Z,0.09
2024-04-06T03:40:36.140Z,0.09
2024-04-06T03:41:36.682Z,0.09
2024-04-06T03:42:37.321Z,0.09
2024-04-06T03:43:39.033Z,0.09
2024-04-06T03:44:39.055Z,0.09
2024-04-06T03:45:38.975Z,0.09
2024-04-06T03:45:48.443Z,0.09
2024-04-06T03:46:48.518Z,0.09
2024-04-06T03:47:49.082Z,0.09
2024-04-06T03:48:49.785Z,0.09
2024-04-06T03:49:50.359Z,0.09
2024-04-06T03:50:51.049Z,0.09
2024-04-06T03:51:51.659Z,0.09
2024-04-06T03:52:51.923Z,0.09
2024-04-06T03:53:52.375Z,0.09
2024-04-06T03:54:52.850Z,0.09
2024-04-06T03:55:53.586Z,0.09
2024-04-06T03:56:54.447Z,0.09
2024-04-06T03:57:55.982Z,0.09
2024-04-06T03:58:55.372Z,0.09
2024-04-06T03:59:55.911Z,0.09
2024-04-06T04:00:56.482Z,0.09
2024-04-06T04:01:57.370Z,0.09
2024-04-06T04:02:57.973Z,0.09
2024-04-06T04:03:58.553Z,0.09
2024-04-06T04:04:59.155Z,0.09
2024-04-06T04:05:59.891Z,0.09
2024-04-06T04:07:00.905Z,0.09
2024-04-06T04:08:01.561Z,0.09
2024-04-06T04:09:02.069Z,0.09
2024-04-06T04:10:02.129Z,0.09
2024-04-06T04:11:02.538Z,0.09
2024-04-06T04:12:04.197Z,0.09
2024-04-06T04:13:04.121Z,0.09
2024-04-06T04:14:04.185Z,0.13
2024-04-06T04:14:16.771Z,0.09
2024-04-06T04:15:17.664Z,0.09
2024-04-06T04:16:17.671Z,0.09
2024-04-06T04:17:18.358Z,0.09
2024-04-06T04:18:18.581Z,0.13
2024-04-06T04:19:18.744Z,0.09
2024-04-06T04:20:19.204Z,0.09
2024-04-06T04:21:19.823Z,0.09
2024-04-06T04:22:20.347Z,0.09
2024-04-06T04:23:20.853Z,0.09
2024-04-06T04:24:22.432Z,0.09
2024-04-06T04:25:21.954Z,0.09
2024-04-06T04:26:22.887Z,0.13
2024-04-06T04:27:23.245Z,0.09
2024-04-06T04:28:23.646Z,0.13
2024-04-06T04:29:24.028Z,0.13
2024-04-06T04:30:24.766Z,0.13
2024-04-06T04:31:25.272Z,0.13
2024-04-06T04:32:26.013Z,0.13
2024-04-06T04:33:26.455Z,0.13
2024-04-06T04:34:27.066Z,0.13
2024-04-06T04:35:27.180Z,0.13
2024-04-06T04:36:28.104Z,0.13
2024-04-06T04:37:28.766Z,0.13
2024-04-06T04:38:29.730Z,0.13
2024-04-06T04:39:30.166Z,0.13
2024-04-06T04:40:30.516Z,0.16
2024-04-06T04:41:31.013Z,0.13
2024-04-06T04:42:31.952Z,0.16
2024-04-06T04:42:40.632Z,-0.09
2024-04-06T04:43:41.302Z,0.13
2024-04-06T04:44:46.351Z,0.16
2024-04-06T04:45:43.454Z,0.16
2024-04-06T04:46:43.962Z,0.13
2024-04-06T04:47:43.796Z,0.13
2024-04-06T04:48:44.336Z,0.16
2024-04-06T04:49:44.884Z,0.13
2024-04-06T04:50:45.537Z,0.09
2024-04-06T04:51:46.082Z,0.13
2024-04-06T04:52:46.880Z,0.13
2024-04-06T04:53:48.036Z,0.13
2024-04-06T04:54:48.567Z,0.13
2024-04-06T04:55:48.417Z,0.16
2024-04-06T04:56:49.168Z,0.13
2024-04-06T04:57:49.536Z,0.16
2024-04-06T04:58:50.091Z,0.16
2024-04-06T04:59:50.697Z,0.16
2024-04-06T05:00:51.231Z,0.16
2024-04-06T05:01:52.033Z,0.16
2024-04-06T05:02:52.905Z,0.16
2024-04-06T05:03:53.693Z,0.16
2024-04-06T05:04:54.184Z,0.23
2024-04-06T05:05:55.166Z,0.16
2024-04-06T05:06:55.556Z,0.16
2024-04-06T05:07:55.665Z,0.16
2024-04-06T05:08:56.428Z,0.16
2024-04-06T05:09:07.024Z,0.16
2024-04-06T05:10:07.149Z,0.16
2024-04-06T05:11:07.685Z,0.16
2024-04-06T05:12:09.158Z,0.16
2024-04-06T05:13:08.901Z,0.16
2024-04-06T05:14:10.304Z,0.23
2024-04-06T05:15:10.277Z,0.23
2024-04-06T05:16:11.087Z,0.23
2024-04-06T05:17:11.515Z,0.23
2024-04-06T05:18:12.012Z,0.23
2024-04-06T05:19:12.796Z,0.23
2024-04-06T05:20:13.100Z,0.23
2024-04-06T05:21:13.805Z,0.16
2024-04-06T05:22:14.469Z,0.27
2024-04-06T05:23:15.305Z,0.27
2024-04-06T05:24:15.920Z,0.27
2024-04-06T05:25:16.504Z,0.27
2024-04-06T05:26:18.397Z,0.27
2024-04-06T05:27:17.980Z,0.27
2024-04-06T05:28:18.496Z,0.27
2024-04-06T05:29:19.264Z,0.23
2024-04-06T05:30:19.456Z,0.27
2024-04-06T05:31:20.257Z,0.27
2024-04-06T05:32:20.250Z,0.27
2024-04-06T05:33:21.003Z,0.27
2024-04-06T05:34:21.665Z,0.27
2024-04-06T05:35:22.187Z,0.27
2024-04-06T05:36:22.649Z,0.31
2024-04-06T05:37:23.223Z,0.27
2024-04-06T05:37:32.424Z,0.31
2024-04-06T05:38:32.844Z,0.31
2024-04-06T05:39:33.240Z,0.31
2024-04-06T05:40:33.664Z,0.31
2024-04-06T05:41:34.389Z,0.31
2024-04-06T05:42:34.799Z,0.31
2024-04-06T05:43:35.157Z,0.31
2024-04-06T05:44:35.831Z,0.31
2024-04-06T05:45:36.243Z,0.31
2024-04-06T05:46:37.048Z,0.31
2024-04-06T05:47:37.811Z,0.31
2024-04-06T05:48:38.394Z,0.34
2024-04-06T05:49:38.463Z,0.34
2024-04-06T05:50:39.218Z,0.34
2024-04-06T05:51:39.800Z,0.38
2024-04-06T05:52:39.864Z,0.34
2024-04-06T05:53:40.514Z,0.34
2024-04-06T05:54:41.440Z,-0.26
2024-04-06T05:55:42.079Z,0.34
2024-04-06T05:56:43.058Z,0.34
2024-04-06T05:57:42.628Z,0.34
2024-04-06T05:58:43.460Z,0.34
2024-04-06T05:59:43.892Z,0.34
2024-04-06T06:00:44.273Z,0.34
2024-04-06T06:01:44.725Z,0.34
2024-04-06T06:02:46.713Z,0.34
2024-04-06T06:03:46.610Z,0.34
2024-04-06T06:04:47.046Z,0.38
2024-04-06T06:05:47.870Z,0.34
2024-04-06T06:05:56.548Z,0.38
2024-04-06T06:06:56.754Z,0.38
2024-04-06T06:07:57.460Z,0.41
2024-04-06T06:08:57.934Z,0.41
2024-04-06T06:09:58.286Z,0.38
2024-04-06T06:10:58.707Z,0.38
2024-04-06T06:11:59.513Z,0.34
2024-04-06T06:12:59.526Z,0.34
2024-04-06T06:13:59.735Z,0.34
2024-04-06T06:15:00.553Z,0.38
2024-04-06T06:16:00.946Z,0.38
2024-04-06T06:17:01.502Z,0.38
2024-04-06T06:18:01.628Z,0.38
2024-04-06T06:19:02.176Z,0.38
2024-04-06T06:20:02.273Z,0.41
2024-04-06T06:21:02.911Z,0.38
2024-04-06T06:22:02.975Z,0.38
2024-04-06T06:23:03.256Z,0.41
2024-04-06T06:24:03.719Z,0.38
2024-04-06T06:25:04.685Z,0.38
2024-04-06T06:26:12.004Z,0.41
2024-04-06T06:27:05.453Z,0.41
2024-04-06T06:28:05.921Z,0.41
2024-04-06T06:29:06.665Z,0.38
2024-04-06T06:30:07.467Z,0.41
2024-04-06T06:31:07.854Z,0.45
2024-04-06T06:32:08.880Z,0.45
2024-04-06T06:33:09.830Z,0.45
2024-04-06T06:34:10.058Z,0.59
2024-04-06T06:35:10.660Z,0.66
2024-04-06T06:35:22.678Z,0.66
2024-04-06T06:38:25.638Z,0.66
2024-04-06T06:41:25.729Z,0.77
2024-04-06T06:42:26.560Z,0.77
2024-04-06T06:43:27.331Z,0.73
2024-04-06T06:45:28.280Z,0.84
2024-04-06T06:46:28.786Z,0.77
2024-04-06T06:47:29.283Z,0.77
2024-04-06T06:48:29.670Z,0.73
2024-04-06T06:49:30.480Z,0.88
2024-04-06T06:50:34.295Z,0.77
2024-04-06T06:51:32.073Z,0.59
2024-04-06T06:52:33.051Z,0.80
2024-04-06T06:53:34.102Z,0.84
2024-04-06T06:54:34.828Z,0.59
2024-04-06T06:55:40.225Z,0.66
2024-04-06T06:56:35.943Z,0.70
2024-04-06T06:57:36.255Z,0.80
2024-04-06T06:58:36.569Z,0.80
2024-04-06T07:00:52.377Z,0.80
2024-04-06T07:01:53.606Z,0.77
2024-04-06T07:02:52.934Z,0.77
2024-04-06T07:03:53.404Z,0.66
2024-04-06T07:04:53.581Z,0.77
2024-04-06T07:05:54.563Z,0.80
2024-04-06T07:07:54.857Z,0.91
2024-04-06T07:09:56.830Z,0.84
2024-04-06T07:10:57.124Z,0.84
2024-04-06T07:11:58.259Z,0.84
2024-04-06T07:12:56.551Z,0.80
2024-04-06T07:13:56.600Z,0.98
2024-04-06T07:14:59.941Z,0.73
2024-04-06T07:15:58.817Z,0.98
2024-04-06T07:16:58.663Z,0.98
2024-04-06T07:17:59.037Z,0.95
2024-04-06T07:19:01.696Z,0.91
2024-04-06T07:19:11.924Z,0.80
2024-04-06T07:20:12.618Z,0.95
2024-04-06T07:21:12.659Z,0.95
2024-04-06T07:22:13.194Z,0.95
2024-04-06T07:23:14.114Z,0.95
2024-04-06T07:24:15.914Z,0.95
2024-04-06T07:25:14.817Z,0.98
2024-04-06T07:26:14.985Z,0.98
2024-04-06T07:27:15.843Z,1.09
2024-04-06T07:28:16.724Z,1.02
2024-04-06T07:29:17.612Z,1.09
2024-04-06T07:30:17.674Z,1.09
2024-04-06T07:31:17.925Z,1.09
2024-04-06T07:32:19.258Z,1.09
2024-04-06T07:33:18.358Z,1.02
2024-04-06T07:34:19.316Z,1.12
2024-04-06T07:35:20.130Z,1.09
2024-04-06T07:36:19.808Z,1.09
2024-04-06T07:37:21.639Z,1.16
2024-04-06T07:39:57.033Z,1.16
2024-04-06T07:40:57.598Z,1.16
2024-04-06T07:41:58.369Z,1.16
2024-04-06T07:42:59.200Z,1.12
2024-04-06T07:44:00.054Z,1.16
2024-04-06T07:45:00.930Z,1.16
2024-04-06T07:46:01.568Z,1.16
2024-04-06T07:47:01.627Z,1.09
2024-04-06T07:48:02.144Z,1.09
2024-04-06T07:49:02.433Z,1.02
2024-04-06T07:50:02.757Z,1.09
2024-04-06T07:51:03.771Z,1.02
2024-04-06T07:52:04.578Z,1.02
2024-04-06T07:53:04.898Z,1.02
2024-04-06T07:54:04.923Z,1.09
2024-04-06T07:55:05.470Z,1.09
2024-04-06T07:56:05.949Z,1.09
2024-04-06T07:57:06.229Z,1.09
2024-04-06T07:58:06.981Z,1.09
2024-04-06T07:59:07.806Z,1.09
2024-04-06T08:00:08.393Z,1.12
2024-04-06T08:01:09.050Z,1.12
2024-04-06T08:02:09.775Z,1.12
2024-04-06T08:03:09.960Z,1.12
2024-04-06T08:04:10.967Z,1.09
2024-04-06T08:05:11.228Z,1.12
2024-04-06T08:06:11.986Z,1.16
2024-04-06T08:06:20.653Z,1.09
2024-04-06T08:07:21.090Z,1.16
2024-04-06T08:08:21.579Z,1.20
2024-04-06T08:09:22.185Z,1.16
2024-04-06T08:10:22.741Z,1.20
2024-04-06T08:11:23.057Z,1.20
2024-04-06T08:12:23.046Z,1.16
2024-04-06T08:13:23.555Z,1.23
2024-04-06T08:14:25.556Z,1.20
2024-04-06T08:15:26.154Z,1.20
2024-04-06T08:16:25.458Z,1.27
2024-04-06T08:17:26.238Z,1.27
2024-04-06T08:18:26.801Z,1.27
2024-04-06T08:19:27.221Z,1.27
2024-04-06T08:20:27.285Z,1.30
2024-04-06T08:21:27.975Z,1.30
2024-04-06T08:22:28.725Z,1.30
2024-04-06T08:23:57.371Z,1.30
2024-04-06T08:24:57.343Z,1.27
2024-04-06T08:25:59.279Z,1.30
2024-04-06T08:26:58.684Z,1.16
2024-04-06T08:27:59.426Z,1.34
2024-04-06T08:29:00.029Z,1.27
2024-04-06T08:30:00.680Z,1.30
2024-04-06T08:31:01.081Z,1.37
2024-04-06T08:32:01.917Z,1.37
2024-04-06T08:33:03.119Z,1.37
2024-04-06T08:34:02.986Z,1.37
2024-04-06T08:35:03.160Z,1.37
2024-04-06T08:36:03.626Z,1.37
2024-04-06T08:37:03.773Z,1.41
2024-04-06T08:38:04.281Z,1.44
2024-04-06T08:39:05.253Z,1.44
2024-04-06T08:40:05.626Z,1.44
2024-04-06T08:41:06.178Z,1.44
2024-04-06T08:42:06.395Z,1.44
2024-04-06T08:43:07.217Z,1.37
2024-04-06T08:44:07.598Z,1.62
2024-04-06T08:45:08.507Z,1.44
2024-04-06T08:46:09.126Z,1.52
2024-04-06T08:47:09.729Z,1.52
2024-04-06T08:48:11.266Z,1.52
2024-04-06T08:49:10.727Z,1.44
2024-04-06T08:50:11.215Z,1.44
2024-04-06T08:51:11.830Z,1.37
2024-04-06T08:52:12.334Z,1.37
2024-04-06T08:52:24.432Z,1.59
2024-04-06T08:53:24.771Z,1.55
2024-04-06T08:54:25.112Z,1.41
2024-04-06T08:55:25.996Z,1.37
2024-04-06T08:56:26.501Z,1.37
2024-04-06T08:57:26.847Z,1.41
2024-04-06T08:58:27.913Z,1.37
2024-04-06T08:59:27.815Z,1.41
2024-04-06T09:00:28.231Z,1.41
2024-04-06T09:01:29.135Z,1.52
2024-04-06T09:02:30.029Z,1.55
2024-04-06T09:03:30.326Z,1.41
2024-04-06T09:04:30.710Z,1.41
2024-04-06T09:05:31.182Z,1.52
2024-04-06T09:06:31.985Z,1.52
2024-04-06T09:07:32.643Z,1.52
2024-04-06T09:08:33.133Z,1.44
2024-04-06T09:09:33.567Z,1.44
2024-04-06T09:10:33.906Z,1.55
2024-04-06T09:11:34.274Z,1.41
2024-04-06T09:12:35.150Z,1.37
2024-04-06T09:13:35.525Z,1.55
2024-04-06T09:14:35.567Z,1.55
2024-04-06T09:15:35.886Z,1.59
2024-04-06T09:16:36.008Z,1.34
2024-04-06T09:17:36.423Z,1.59
2024-04-06T09:18:37.412Z,1.52
2024-04-06T09:18:45.946Z,1.37
2024-04-06T09:19:46.802Z,1.02
2024-04-06T09:20:48.068Z,1.34
2024-04-06T09:21:47.547Z,1.44
2024-04-06T09:22:47.671Z,1.59
2024-04-06T09:23:48.523Z,1.59
2024-04-06T09:24:48.814Z,1.66
2024-04-06T09:25:49.604Z,0.84
2024-04-06T09:26:50.216Z,1.55
2024-04-06T09:27:50.556Z,1.69
2024-04-06T09:28:51.139Z,1.62
2024-04-06T09:29:51.967Z,1.37
2024-04-06T09:30:52.538Z,1.52
2024-04-06T09:31:53.258Z,1.41
2024-04-06T09:32:53.622Z,1.41
2024-04-06T09:33:54.108Z,1.09
2024-04-06T09:34:54.974Z,1.69
2024-04-06T09:35:55.510Z,1.73
2024-04-06T09:36:55.554Z,1.73
2024-04-06T09:37:56.253Z,1.77
2024-04-06T09:38:56.694Z,1.77
2024-04-06T09:39:57.214Z,1.77
2024-04-06T09:40:58.045Z,1.77
2024-04-06T09:41:58.647Z,1.77
2024-04-06T09:42:59.215Z,1.77
2024-04-06T09:43:59.844Z,1.77
2024-04-06T09:45:00.317Z,1.77
2024-04-06T09:46:00.921Z,1.73
2024-04-06T09:47:01.757Z,1.77
2024-04-06T09:47:10.415Z,1.77
2024-04-06T09:48:11.108Z,1.77
2024-04-06T09:49:11.612Z,1.77
2024-04-06T09:50:11.823Z,1.69
2024-04-06T09:51:11.877Z,1.77
2024-04-06T09:52:12.151Z,1.77
2024-04-06T09:53:12.685Z,1.77
2024-04-06T09:54:13.440Z,1.77
2024-04-06T09:55:14.175Z,1.73
2024-04-06T09:56:14.905Z,1.77
2024-04-06T09:57:15.536Z,1.77
2024-04-06T09:58:16.283Z,1.62
2024-04-06T09:59:17.032Z,1.66
2024-04-06T10:00:17.460Z,1.66
2024-04-06T10:01:19.660Z,1.73
2024-04-06T10:02:18.868Z,1.73
2024-04-06T10:03:19.729Z,1.77
2024-04-06T10:04:20.220Z,1.77
2024-04-06T10:05:20.686Z,1.69
2024-04-06T10:06:20.975Z,1.73
2024-04-06T10:07:21.106Z,1.59
2024-04-06T10:08:24.158Z,1.69
2024-04-06T10:09:21.686Z,1.69
2024-04-06T10:10:21.950Z,1.73
2024-04-06T10:10:33.682Z,1.77
2024-04-06T10:11:33.692Z,1.77
2024-04-06T10:12:33.833Z,1.73
2024-04-06T10:13:34.255Z,1.73
2024-04-06T10:15:01.695Z,1.80
2024-04-06T10:16:01.967Z,1.80
2024-04-06T10:17:02.249Z,1.80
2024-04-06T10:18:02.352Z,1.80
2024-04-06T10:19:03.229Z,1.84
2024-04-06T10:20:03.800Z,1.80
2024-04-06T10:21:04.317Z,1.80
2024-04-06T10:22:04.350Z,0.70
2024-04-06T10:23:05.371Z,1.80
2024-04-06T10:24:04.771Z,1.80
2024-04-06T10:25:05.110Z,1.80
2024-04-06T10:26:05.954Z,1.80
2024-04-06T10:27:06.395Z,1.80
2024-04-06T10:28:08.353Z,1.84
2024-04-06T10:29:08.059Z,1.80
2024-04-06T10:30:08.351Z,1.73
2024-04-06T10:31:11.034Z,1.80
2024-04-06T10:32:09.873Z,1.73
2024-04-06T10:33:09.797Z,1.80
2024-04-06T10:34:10.082Z,1.84
2024-04-06T10:35:10.732Z,1.84
2024-04-06T10:36:10.961Z,1.77
2024-04-06T10:37:12.777Z,1.80
2024-04-06T10:38:12.398Z,1.66
2024-04-06T10:39:12.756Z,1.80
2024-04-06T10:40:14.357Z,1.77
2024-04-06T10:41:14.051Z,1.80
2024-04-06T10:42:14.744Z,1.80
2024-04-06T10:42:27.557Z,1.80
2024-04-06T10:43:27.882Z,1.80
2024-04-06T10:44:28.528Z,1.84
2024-04-06T10:45:29.430Z,1.80
2024-04-06T10:46:31.332Z,1.73
2024-04-06T10:47:31.344Z,1.80
2024-04-06T10:48:32.047Z,1.84
2024-04-06T10:49:33.981Z,1.80
2024-04-06T10:50:33.678Z,1.80
2024-04-06T10:51:43.577Z,1.73
2024-04-06T10:52:34.852Z,1.37
2024-04-06T10:53:35.586Z,1.73
2024-04-06T10:54:38.599Z,1.77
2024-04-06T10:55:35.655Z,1.77
2024-04-06T10:56:35.933Z,1.66
2024-04-06T10:57:36.431Z,1.77
2024-04-06T10:58:36.736Z,1.80
2024-04-06T10:59:37.325Z,1.84
2024-04-06T11:00:38.204Z,1.84
2024-04-06T11:01:39.006Z,1.98
2024-04-06T11:02:39.404Z,1.94
2024-04-06T11:03:39.650Z,1.98
2024-04-06T11:04:42.783Z,1.94
2024-04-06T11:05:40.153Z,1.73
2024-04-06T11:05:51.555Z,1.87
2024-04-06T11:06:52.244Z,1.98
2024-04-06T11:07:53.209Z,1.84
2024-04-06T11:08:54.297Z,1.94
2024-04-06T11:09:54.404Z,1.73
2024-04-06T11:10:54.379Z,1.73
2024-04-06T11:11:55.270Z,1.94
2024-04-06T11:12:56.184Z,1.98
2024-04-06T11:13:56.252Z,1.80
2024-04-06T11:14:56.393Z,1.84
2024-04-06T11:15:56.386Z,1.84
2024-04-06T11:16:56.791Z,1.80
2024-04-06T11:17:57.598Z,1.84
2024-04-06T11:18:57.946Z,1.84
2024-04-06T11:19:58.337Z,1.84
2024-04-06T11:20:59.186Z,1.98
2024-04-06T11:21:59.462Z,1.73
2024-04-06T11:22:59.724Z,1.98
2024-04-06T11:24:00.704Z,1.84
2024-04-06T11:25:01.549Z,1.98
2024-04-06T11:26:02.227Z,1.94
2024-04-06T11:27:03.211Z,1.84
2024-04-06T11:28:04.194Z,1.98
2024-04-06T11:29:05.227Z,1.94
2024-04-06T11:30:05.517Z,1.84
2024-04-06T11:31:06.043Z,1.94
2024-04-06T11:32:06.694Z,1.87
2024-04-06T11:33:08.477Z,1.94
2024-04-06T11:34:08.122Z,1.84
2024-04-06T11:35:08.256Z,1.98
2024-04-06T11:36:11.864Z,1.98
2024-04-06T11:36:31.728Z,1.84
2024-04-06T11:37:26.489Z,1.84
2024-04-06T11:38:26.564Z,1.84
2024-04-06T11:39:27.297Z,1.87
2024-04-06T11:40:28.080Z,1.84
2024-04-06T11:41:28.444Z,1.77
2024-04-06T11:42:31.030Z,1.84
2024-04-06T11:43:29.848Z,1.84
2024-04-06T11:44:30.597Z,1.84
2024-04-06T11:45:30.708Z,1.84
2024-04-06T11:46:31.089Z,1.84
2024-04-06T11:47:31.819Z,1.84
2024-04-06T11:48:32.405Z,1.80
2024-04-06T11:49:32.892Z,1.84
2024-04-06T11:50:32.952Z,1.84
2024-04-06T11:51:38.156Z,1.84
2024-04-06T11:52:34.850Z,1.87
2024-04-06T11:53:35.802Z,1.80
2024-04-06T11:54:36.637Z,1.77
2024-04-06T11:55:36.766Z,1.77
2024-04-06T11:56:37.360Z,1.80
2024-04-06T11:57:38.118Z,1.80
2024-04-06T11:58:38.961Z,1.84
2024-04-06T11:59:39.681Z,1.84
2024-04-06T12:00:40.094Z,1.84
2024-04-06T12:01:40.302Z,1.84
2024-04-06T12:02:40.374Z,1.80
2024-04-06T12:03:41.093Z,1.80
2024-04-06T12:04:42.064Z,1.80
2024-04-06T12:04:50.757Z,1.84
2024-04-06T12:05:51.426Z,1.84
2024-04-06T12:06:51.911Z,1.80
2024-04-06T12:07:52.344Z,1.80
2024-04-06T12:08:53.038Z,1.77
2024-04-06T12:09:53.481Z,1.77
2024-04-06T12:10:53.721Z,1.80
2024-04-06T12:11:56.561Z,1.80
2024-04-06T12:12:54.600Z,1.77
2024-04-06T12:13:54.607Z,1.80
2024-04-06T12:14:55.236Z,1.77
2024-04-06T12:15:55.901Z,1.80
2024-04-06T12:16:56.782Z,1.73
2024-04-06T12:17:59.559Z,1.73
2024-04-06T12:18:58.127Z,1.73
2024-04-06T12:19:58.818Z,1.69
2024-04-06T12:20:59.617Z,1.73
2024-04-06T12:21:59.631Z,1.66
2024-04-06T12:22:59.670Z,1.73
2024-04-06T12:24:00.172Z,1.62
2024-04-06T12:25:00.819Z,1.66
2024-04-06T12:26:01.755Z,1.62
2024-04-06T12:27:01.736Z,1.66
2024-04-06T12:28:02.488Z,1.66
2024-04-06T12:29:04.259Z,1.59
2024-04-06T12:30:04.063Z,1.73
2024-04-06T12:31:04.697Z,1.55
2024-04-06T12:32:05.225Z,1.52
2024-04-06T12:33:05.837Z,1.69
2024-04-06T12:33:14.593Z,1.73
2024-04-06T12:34:14.686Z,1.73
2024-04-06T12:35:14.953Z,1.73
2024-04-06T12:36:15.104Z,1.73
2024-04-06T12:37:15.961Z,1.77
2024-04-06T12:38:16.322Z,1.73
2024-04-06T12:39:18.130Z,1.66
2024-04-06T12:40:17.414Z,1.66
2024-04-06T12:41:17.940Z,1.69
2024-04-06T12:42:18.497Z,1.69
2024-04-06T12:43:19.216Z,1.66
2024-04-06T12:44:19.746Z,1.73
2024-04-06T12:45:20.782Z,1.77
2024-04-06T12:46:21.453Z,1.77
2024-04-06T12:47:21.972Z,1.59
2024-04-06T12:48:22.407Z,1.77
2024-04-06T12:49:23.125Z,1.66
2024-04-06T12:50:23.489Z,1.66
2024-04-06T12:51:24.328Z,1.69
2024-04-06T12:52:24.711Z,1.69
2024-04-06T12:53:25.196Z,1.69
2024-04-06T12:54:25.143Z,1.73
2024-04-06T12:55:25.734Z,1.73
2024-04-06T12:56:26.481Z,1.77
2024-04-06T12:57:26.909Z,1.77
2024-04-06T12:58:27.589Z,1.66
2024-04-06T12:59:28.426Z,1.55
2024-04-06T13:00:29.070Z,1.62
2024-04-06T13:01:29.813Z,1.55
2024-04-06T13:01:38.867Z,1.55
2024-04-06T13:02:38.526Z,1.59
2024-04-06T13:03:46.060Z,1.41
2024-04-06T13:04:39.567Z,1.41
2024-04-06T13:05:40.193Z,1.37
2024-04-06T13:06:40.741Z,1.37
2024-04-06T13:07:41.656Z,1.44
2024-04-06T13:08:42.162Z,1.41
2024-04-06T13:09:42.705Z,1.41
2024-04-06T13:10:43.501Z,1.41
2024-04-06T13:11:44.236Z,1.37
2024-04-06T13:12:44.780Z,1.41
2024-04-06T13:13:45.354Z,1.37
2024-04-06T13:14:45.724Z,1.41
2024-04-06T13:15:46.263Z,1.37